createdAt,value
2023-04-07T00:01:23.756Z,5.80
2023-04-07T00:03:53.025Z,5.78
2023-04-07T00:06:22.172Z,5.68
2023-04-07T00:08:51.304Z,5.65
2023-04-07T00:11:20.608Z,5.50
2023-04-07T00:13:49.564Z,5.55
2023-04-07T00:16:22.292Z,5.50
2023-04-07T00:18:51.327Z,5.50
2023-04-07T00:21:20.260Z,5.20
2023-04-07T00:23:49.297Z,5.53
2023-04-07T00:26:18.302Z,5.15
2023-04-07T00:28:49.254Z,5.50
2023-04-07T00:31:19.701Z,5.38
2023-04-07T00:33:49.540Z,5.40
2023-04-07T00:36:18.762Z,5.22
2023-04-07T00:38:50.196Z,5.75
2023-04-07T00:41:19.200Z,4.97
2023-04-07T00:43:48.313Z,5.53
2023-04-07T00:46:17.679Z,5.03
2023-04-07T00:48:48.472Z,4.95
2023-04-07T00:51:17.658Z,5.75
2023-04-07T00:53:46.715Z,5.40
2023-04-07T00:56:16.074Z,5.80
2023-04-07T00:58:45.340Z,5.45
2023-04-07T01:01:20.208Z,5.75
2023-04-07T01:03:58.483Z,6.40
2023-04-07T01:06:32.657Z,5.88
2023-04-07T01:09:08.790Z,5.97
2023-04-07T01:11:44.474Z,6.20
2023-04-07T01:14:20.792Z,5.68
2023-04-07T01:16:59.094Z,6.43
2023-04-07T01:19:37.807Z,7.03
2023-04-07T01:22:12.857Z,6.57
2023-04-07T01:25:01.400Z,5.88
2023-04-07T01:27:44.134Z,5.32
2023-04-07T01:30:16.981Z,5.32
2023-04-07T01:32:52.051Z,5.40
2023-04-07T01:35:25.182Z,5.13
2023-04-07T01:37:55.358Z,5.50
2023-04-07T01:40:25.363Z,5.35
2023-04-07T01:42:55.579Z,4.90
2023-04-07T01:45:27.860Z,5.00
2023-04-07T01:47:57.232Z,5.35
2023-04-07T01:50:27.406Z,5.40
2023-04-07T01:52:57.428Z,5.03
2023-04-07T01:55:27.032Z,5.28
2023-04-07T01:58:09.431Z,5.38
2023-04-07T02:00:43.484Z,5.60
2023-04-07T02:03:33.247Z,4.93
2023-04-07T02:06:08.524Z,5.85
2023-04-07T02:08:41.659Z,6.28
2023-04-07T02:11:12.850Z,5.88
2023-04-07T02:13:45.512Z,5.97
2023-04-07T02:16:18.407Z,6.03
2023-04-07T02:18:48.816Z,5.63
2023-04-07T02:21:19.482Z,5.40
2023-04-07T02:23:48.706Z,5.40
2023-04-07T02:26:17.952Z,5.35
2023-04-07T02:28:46.905Z,5.28
2023-04-07T02:31:17.336Z,4.85
2023-04-07T02:33:46.387Z,5.00
2023-04-07T02:36:15.403Z,5.20
2023-04-07T02:38:44.429Z,5.70
2023-04-07T02:41:13.465Z,6.20
2023-04-07T02:43:42.500Z,5.13
2023-04-07T02:46:12.061Z,5.65
2023-04-07T02:48:42.977Z,5.32
2023-04-07T02:51:12.363Z,5.10
2023-04-07T02:53:41.380Z,5.90
2023-04-07T02:56:10.910Z,5.13
2023-04-07T02:58:39.943Z,5.50
2023-04-07T03:01:09.606Z,5.57
2023-04-07T03:03:39.382Z,5.22
2023-04-07T03:06:15.705Z,5.32
2023-04-07T03:08:59.326Z,5.40
2023-04-07T03:11:28.434Z,6.18
2023-04-07T03:13:59.928Z,5.90
2023-04-07T03:16:30.727Z,5.18
2023-04-07T03:19:25.882Z,5.30
2023-04-07T03:21:56.757Z,5.45
2023-04-07T03:24:25.870Z,5.97
2023-04-07T03:26:55.061Z,5.43
2023-04-07T03:29:38.417Z,5.68
2023-04-07T03:32:10.595Z,5.60
2023-04-07T03:34:40.137Z,5.40
2023-04-07T03:37:10.894Z,5.93
2023-04-07T03:39:41.196Z,5.47
2023-04-07T03:42:32.465Z,5.65
2023-04-07T03:45:07.085Z,5.32
2023-04-07T03:47:38.514Z,5.15
2023-04-07T03:50:09.732Z,5.45
2023-04-07T03:52:49.714Z,5.28
2023-04-07T03:55:32.133Z,5.32
2023-04-07T03:58:10.454Z,6.18
2023-04-07T04:00:43.906Z,5.63
2023-04-07T04:03:14.680Z,5.97
2023-04-07T04:06:04.877Z,5.32
2023-04-07T04:08:37.785Z,5.35
2023-04-07T04:11:07.758Z,6.47
2023-04-07T04:13:47.217Z,5.78
2023-04-07T04:16:16.388Z,5.30
2023-04-07T04:18:46.614Z,5.03
2023-04-07T04:21:17.446Z,5.90
2023-04-07T04:23:49.764Z,6.85
2023-04-07T04:26:19.754Z,5.88
2023-04-07T04:28:48.909Z,5.55
2023-04-07T04:31:20.591Z,6.07
2023-04-07T04:33:49.687Z,5.88
2023-04-07T04:36:18.805Z,5.35
2023-04-07T04:38:50.653Z,6.03
2023-04-07T04:41:22.072Z,6.00
2023-04-07T04:43:52.897Z,5.63
2023-04-07T04:46:26.280Z,6.00
2023-04-07T04:48:58.002Z,6.55
2023-04-07T04:51:30.964Z,5.70
2023-04-07T04:54:07.513Z,5.90
2023-04-07T04:56:37.099Z,6.30
2023-04-07T04:59:07.187Z,6.40
2023-04-07T05:01:55.666Z,5.60
2023-04-07T05:04:25.096Z,5.68
2023-04-07T05:07:02.705Z,6.07
2023-04-07T05:09:35.390Z,5.70
2023-04-07T05:12:05.831Z,6.60
2023-04-07T05:14:40.569Z,5.68
2023-04-07T05:17:11.188Z,6.75
2023-04-07T05:19:40.795Z,6.85
2023-04-07T05:22:17.037Z,6.22
2023-04-07T05:24:50.916Z,6.18
2023-04-07T05:27:22.894Z,6.65
2023-04-07T05:29:57.163Z,6.72
2023-04-07T05:32:33.741Z,4.38
2023-04-07T05:35:10.632Z,6.25
2023-04-07T05:37:44.263Z,5.47
2023-04-07T05:40:15.691Z,5.97
2023-04-07T05:42:46.106Z,6.50
2023-04-07T05:45:16.150Z,6.55
2023-04-07T05:47:50.668Z,6.50
2023-04-07T05:52:57.141Z,6.07
2023-04-07T05:55:31.171Z,6.80
2023-04-07T05:58:01.302Z,6.32
2023-04-07T06:00:32.900Z,6.97
2023-04-07T06:03:09.044Z,7.53
2023-04-07T06:05:50.166Z,7.88
2023-04-07T06:08:22.378Z,6.93
2023-04-07T06:10:52.897Z,6.28
2023-04-07T06:13:22.028Z,6.60
2023-04-07T06:15:51.210Z,6.05
2023-04-07T06:18:20.262Z,6.15
2023-04-07T06:20:49.533Z,7.10
2023-04-07T06:23:18.597Z,7.28
2023-04-07T06:25:52.179Z,6.18
2023-04-07T06:28:22.654Z,6.85
2023-04-07T06:30:51.875Z,6.78
2023-04-07T06:33:25.589Z,6.57
2023-04-07T06:35:54.752Z,6.18
2023-04-07T06:38:23.923Z,6.50
2023-04-07T06:40:55.466Z,6.30
2023-04-07T06:43:26.172Z,5.97
2023-04-07T06:46:03.894Z,6.25
2023-04-07T06:48:33.069Z,5.97
2023-04-07T06:51:02.086Z,6.30
2023-04-07T06:53:31.132Z,6.18
2023-04-07T06:56:08.178Z,5.88
2023-04-07T07:01:08.301Z,6.30
2023-04-07T07:03:37.360Z,6.13
2023-04-07T07:06:06.825Z,6.82
2023-04-07T07:08:35.860Z,5.82
2023-04-07T07:11:05.500Z,5.97
2023-04-07T07:13:34.552Z,5.90
2023-04-07T07:16:05.467Z,6.18
2023-04-07T07:18:34.588Z,5.97
2023-04-07T07:21:03.561Z,5.47
2023-04-07T07:23:32.795Z,5.75
2023-04-07T07:26:01.877Z,6.00
2023-04-07T07:28:33.557Z,5.40
2023-04-07T07:31:10.231Z,6.10
2023-04-07T07:33:40.562Z,6.05
2023-04-07T07:36:10.318Z,6.97
2023-04-07T07:38:40.192Z,6.22
2023-04-07T07:41:09.485Z,5.45
2023-04-07T07:43:39.633Z,6.18
2023-04-07T07:46:10.094Z,5.63
2023-04-07T07:48:39.303Z,6.13
2023-04-07T07:51:08.335Z,5.88
2023-04-07T07:53:37.426Z,5.70
2023-04-07T07:56:06.608Z,5.97
2023-04-07T07:58:37.471Z,6.18
2023-04-07T08:01:06.598Z,5.93
2023-04-07T08:03:37.538Z,5.63
2023-04-07T08:06:09.444Z,5.80
2023-04-07T08:08:38.471Z,5.97
2023-04-07T08:11:10.125Z,6.43
2023-04-07T08:13:39.256Z,6.03
2023-04-07T08:16:08.809Z,7.00
2023-04-07T08:18:41.300Z,6.20
2023-04-07T08:21:10.453Z,6.68
2023-04-07T08:23:39.574Z,7.30
2023-04-07T08:26:10.870Z,5.72
2023-04-07T08:28:40.429Z,6.00
2023-04-07T08:31:09.560Z,6.13
2023-04-07T08:33:40.385Z,7.57
2023-04-07T08:36:09.583Z,6.78
2023-04-07T08:38:41.419Z,6.80
2023-04-07T08:41:18.806Z,6.93
2023-04-07T08:46:22.772Z,6.25
2023-04-07T08:48:54.085Z,6.25
2023-04-07T08:51:30.500Z,6.72
2023-04-07T08:54:07.385Z,6.38
2023-04-07T08:56:38.646Z,6.03
2023-04-07T08:59:13.932Z,6.38
2023-04-07T09:01:43.309Z,6.80
2023-04-07T09:04:14.332Z,6.82
2023-04-07T09:06:43.452Z,6.85
2023-04-07T09:09:13.455Z,7.57
2023-04-07T09:11:44.018Z,7.05
2023-04-07T09:14:13.714Z,6.30
2023-04-07T09:16:43.628Z,6.93
2023-04-07T09:19:14.198Z,6.47
2023-04-07T09:21:51.352Z,6.50
2023-04-07T09:24:26.116Z,6.72
2023-04-07T09:27:11.473Z,6.53
2023-04-07T09:29:42.134Z,6.75
2023-04-07T09:32:12.359Z,6.88
2023-04-07T09:34:43.238Z,5.85
2023-04-07T09:37:24.120Z,6.78
2023-04-07T09:39:54.653Z,6.70
2023-04-07T09:42:23.718Z,7.07
2023-04-07T09:44:52.980Z,6.63
2023-04-07T09:47:30.367Z,6.10
2023-04-07T09:52:53.592Z,6.72
2023-04-07T09:55:23.748Z,6.50
2023-04-07T09:57:55.368Z,6.88
2023-04-07T10:00:25.249Z,6.72
2023-04-07T10:02:55.301Z,6.60
2023-04-07T10:05:26.516Z,6.75
2023-04-07T10:07:55.704Z,7.40
2023-04-07T10:10:25.523Z,6.22
2023-04-07T10:12:57.005Z,6.45
2023-04-07T10:15:26.734Z,5.97
2023-04-07T10:17:57.886Z,7.03
2023-04-07T10:20:29.928Z,6.10
2023-04-07T10:23:14.625Z,5.85
2023-04-07T10:25:45.965Z,7.95
2023-04-07T10:28:18.475Z,5.95
2023-04-07T10:30:50.623Z,6.40
2023-04-07T10:33:20.188Z,5.47
2023-04-07T10:36:08.472Z,6.03
2023-04-07T10:38:37.566Z,6.00
2023-04-07T10:41:35.391Z,6.03
2023-04-07T10:44:07.389Z,6.65
2023-04-07T10:47:07.114Z,5.90
2023-04-07T10:49:37.998Z,6.75
2023-04-07T10:52:30.167Z,6.63
2023-04-07T10:55:32.820Z,5.88
2023-04-07T10:58:22.876Z,6.20
2023-04-07T11:01:23.301Z,6.78
2023-04-07T11:04:01.218Z,6.75
2023-04-07T11:06:31.593Z,6.22
2023-04-07T11:09:02.125Z,6.22
2023-04-07T11:11:42.442Z,6.40
2023-04-07T11:14:11.780Z,6.13
2023-04-07T11:16:45.845Z,6.50
2023-04-07T11:19:15.171Z,6.50
2023-04-07T11:21:44.240Z,6.80
2023-04-07T11:24:33.986Z,6.93
2023-04-07T11:27:03.120Z,6.90
2023-04-07T11:29:34.832Z,5.97
2023-04-07T11:32:05.580Z,6.43
2023-04-07T11:34:36.865Z,6.78
2023-04-07T11:37:21.077Z,6.60
2023-04-07T11:39:54.893Z,6.63
2023-04-07T11:42:34.596Z,6.63
2023-04-07T11:45:05.077Z,7.05
2023-04-07T11:47:37.210Z,7.05
2023-04-07T11:50:12.119Z,6.32
2023-04-07T11:52:43.890Z,6.95
2023-04-07T11:55:24.472Z,7.22
2023-04-07T11:57:53.878Z,7.47
2023-04-07T12:00:24.987Z,6.65
2023-04-07T12:02:56.801Z,6.72
2023-04-07T12:05:28.196Z,7.38
2023-04-07T12:07:57.988Z,7.65
2023-04-07T12:10:28.874Z,6.68
2023-04-07T12:12:59.412Z,7.10
2023-04-07T12:15:28.924Z,6.72
2023-04-07T12:17:58.200Z,7.10
2023-04-07T12:20:28.474Z,6.72
2023-04-07T12:22:57.944Z,6.70
2023-04-07T12:25:28.662Z,6.95
2023-04-07T12:27:57.652Z,6.88
2023-04-07T12:30:26.697Z,7.82
2023-04-07T12:32:55.837Z,7.05
2023-04-07T12:35:25.221Z,6.90
2023-04-07T12:37:54.685Z,7.63
2023-04-07T12:40:23.848Z,7.50
2023-04-07T12:42:54.213Z,7.93
2023-04-07T12:45:23.366Z,7.35
2023-04-07T12:47:52.448Z,7.53
2023-04-07T12:50:21.477Z,8.25
2023-04-07T12:52:51.303Z,7.95
2023-04-07T12:55:20.835Z,8.10
2023-04-07T12:57:49.823Z,8.02
2023-04-07T13:00:20.420Z,7.50
2023-04-07T13:02:50.925Z,7.68
2023-04-07T13:05:20.165Z,7.35
2023-04-07T13:07:49.897Z,7.20
2023-04-07T13:10:19.399Z,7.57
2023-04-07T13:12:48.705Z,8.35
2023-04-07T13:15:19.277Z,7.90
2023-04-07T13:17:48.654Z,8.00
2023-04-07T13:20:20.175Z,8.00
2023-04-07T13:23:02.719Z,7.30
2023-04-07T13:25:36.523Z,7.70
2023-04-07T13:28:06.044Z,8.63
2023-04-07T13:30:36.506Z,8.57
2023-04-07T13:33:05.894Z,8.35
2023-04-07T13:35:36.113Z,8.65
2023-04-07T13:38:05.845Z,8.35
2023-04-07T13:40:34.957Z,7.70
2023-04-07T13:43:04.216Z,8.95
2023-04-07T13:45:33.794Z,8.23
2023-04-07T13:48:04.455Z,8.90
2023-04-07T13:50:37.175Z,8.75
2023-04-07T13:53:12.618Z,9.13
2023-04-07T13:55:42.104Z,9.13
2023-04-07T13:58:11.211Z,9.20
2023-04-07T14:00:40.443Z,9.23
2023-04-07T14:03:11.043Z,9.00
2023-04-07T14:05:40.402Z,9.27
2023-04-07T14:08:09.479Z,9.95
2023-04-07T14:10:42.151Z,8.85
2023-04-07T14:13:12.827Z,9.80
2023-04-07T14:15:41.929Z,9.65
2023-04-07T14:18:12.452Z,9.70
2023-04-07T14:20:41.604Z,9.40
2023-04-07T14:23:10.779Z,11.18
2023-04-07T14:25:39.872Z,10.38
2023-04-07T14:28:09.626Z,11.65
2023-04-07T14:30:39.087Z,11.85
2023-04-07T14:33:08.268Z,11.15
2023-04-07T14:35:39.593Z,12.48
2023-04-07T14:38:08.601Z,11.43
2023-04-07T14:40:37.752Z,12.43
2023-04-07T14:43:07.916Z,12.38
2023-04-07T14:45:37.488Z,11.90
2023-04-07T14:48:10.343Z,11.93
2023-04-07T14:50:41.326Z,13.38
2023-04-07T14:53:10.460Z,12.43
2023-04-07T14:55:41.622Z,13.98
2023-04-07T14:58:11.035Z,13.18
2023-04-07T15:00:40.146Z,13.05
2023-04-07T15:03:09.510Z,12.65
2023-04-07T15:05:40.071Z,13.00
2023-04-07T15:08:09.179Z,12.75
2023-04-07T15:10:40.322Z,13.00
2023-04-07T15:13:09.455Z,12.30
2023-04-07T15:15:38.593Z,12.35
2023-04-07T15:18:07.793Z,12.70
2023-04-07T15:20:36.836Z,12.60
2023-04-07T15:23:08.202Z,11.95
2023-04-07T15:25:37.237Z,12.68
2023-04-07T15:28:06.862Z,12.73
2023-04-07T15:30:37.147Z,11.80
2023-04-07T15:33:06.589Z,12.02
2023-04-07T15:35:36.492Z,12.50
2023-04-07T15:38:07.097Z,12.02
2023-04-07T15:40:37.710Z,11.73
2023-04-07T15:43:10.501Z,12.20
2023-04-07T15:45:44.179Z,12.20
2023-04-07T15:48:16.272Z,12.02
2023-04-07T15:50:45.533Z,17.42
2023-04-07T15:53:15.953Z,12.27
2023-04-07T15:55:45.614Z,13.38
2023-04-07T15:58:14.697Z,11.77
2023-04-07T16:00:44.734Z,12.15
2023-04-07T16:03:13.948Z,12.63
2023-04-07T16:05:43.386Z,11.90
2023-04-07T16:08:13.814Z,11.50
2023-04-07T16:10:44.530Z,11.77
2023-04-07T16:13:13.790Z,11.00
2023-04-07T16:15:43.718Z,11.25
2023-04-07T16:18:13.241Z,11.32
2023-04-07T16:20:42.494Z,11.40
2023-04-07T16:23:12.591Z,11.93
2023-04-07T16:25:43.222Z,11.80
2023-04-07T16:28:14.177Z,12.18
2023-04-07T16:30:44.212Z,13.00
2023-04-07T16:33:13.410Z,12.05
2023-04-07T16:35:42.850Z,12.52
2023-04-07T16:38:11.938Z,11.63
2023-04-07T16:40:42.742Z,12.10
2023-04-07T16:43:17.639Z,12.20
2023-04-07T16:45:52.271Z,11.52
2023-04-07T16:48:21.524Z,11.93
2023-04-07T16:50:52.199Z,11.88
2023-04-07T16:53:25.933Z,11.82
2023-04-07T16:55:55.101Z,12.95
2023-04-07T16:58:27.652Z,12.20
2023-04-07T17:00:56.781Z,11.40
2023-04-07T17:03:28.756Z,12.10
2023-04-07T17:06:03.475Z,12.52
2023-04-07T17:08:32.812Z,12.55
2023-04-07T17:11:01.855Z,11.68
2023-04-07T17:13:32.438Z,12.15
2023-04-07T17:16:03.990Z,11.43
2023-04-07T17:18:34.023Z,13.02
2023-04-07T17:21:03.163Z,12.98
2023-04-07T17:23:32.349Z,13.18
2023-04-07T17:26:01.561Z,12.30
2023-04-07T17:28:32.243Z,13.27
2023-04-07T17:31:02.925Z,11.88
2023-04-07T17:33:32.323Z,12.52
2023-04-07T17:36:03.666Z,12.52
2023-04-07T17:38:34.083Z,12.10
2023-04-07T17:41:03.310Z,12.00
2023-04-07T17:43:33.794Z,12.95
2023-04-07T17:46:04.742Z,12.50
2023-04-07T17:48:34.369Z,13.27
2023-04-07T17:51:03.434Z,13.00
2023-04-07T17:53:33.742Z,13.45
2023-04-07T17:56:02.759Z,12.05
2023-04-07T17:58:33.334Z,13.48
2023-04-07T18:01:02.738Z,13.75
2023-04-07T18:03:32.093Z,13.55
2023-04-07T18:06:01.262Z,13.80
2023-04-07T18:08:30.762Z,14.55
2023-04-07T18:10:59.832Z,14.50
2023-04-07T18:13:28.878Z,15.77
2023-04-07T18:15:59.687Z,15.02
2023-04-07T18:18:28.790Z,16.92
2023-04-07T18:20:57.812Z,13.95
2023-04-07T18:23:27.033Z,14.75
2023-04-07T18:25:56.095Z,14.90
2023-04-07T18:28:25.886Z,15.07
2023-04-07T18:31:03.810Z,15.25
2023-04-07T18:33:34.254Z,15.30
2023-04-07T18:36:07.867Z,15.52
2023-04-07T18:38:38.245Z,15.45
2023-04-07T18:41:08.701Z,16.42
2023-04-07T18:43:39.421Z,15.13
2023-04-07T18:46:10.913Z,15.07
2023-04-07T18:48:41.136Z,16.45
2023-04-07T18:51:12.823Z,16.02
2023-04-07T18:53:42.130Z,15.32
2023-04-07T18:56:11.503Z,16.63
2023-04-07T18:58:45.000Z,15.77
2023-04-07T19:01:15.858Z,16.40
2023-04-07T19:03:45.915Z,18.20
2023-04-07T19:06:15.731Z,17.35
2023-04-07T19:08:45.248Z,17.35
2023-04-07T19:11:14.598Z,17.88
2023-04-07T19:13:43.893Z,16.45
2023-04-07T19:16:13.267Z,17.30
2023-04-07T19:18:44.097Z,16.90
2023-04-07T19:21:13.737Z,17.63
2023-04-07T19:23:42.939Z,16.52
2023-04-07T19:26:13.094Z,17.23
2023-04-07T19:28:42.448Z,17.83
2023-04-07T19:31:11.973Z,17.02
2023-04-07T19:33:41.452Z,16.98
2023-04-07T19:36:12.388Z,17.55
2023-04-07T19:38:41.548Z,17.85
2023-04-07T19:41:11.135Z,17.17
2023-04-07T19:43:40.337Z,16.60
2023-04-07T19:46:09.501Z,17.08
2023-04-07T19:48:38.602Z,19.13
2023-04-07T19:51:08.318Z,17.55
2023-04-07T19:53:38.918Z,18.27
2023-04-07T19:56:08.452Z,18.45
2023-04-07T19:58:40.185Z,17.23
2023-04-07T20:01:17.845Z,18.80
2023-04-07T20:03:47.372Z,18.65
2023-04-07T20:06:17.231Z,17.15
2023-04-07T20:08:48.541Z,18.35
2023-04-07T20:11:17.928Z,18.92
2023-04-07T20:13:49.549Z,20.02
2023-04-07T20:16:18.636Z,18.75
2023-04-07T20:18:48.118Z,19.35
2023-04-07T20:21:17.450Z,17.92
2023-04-07T20:23:47.850Z,18.33
2023-04-07T20:26:17.825Z,19.27
2023-04-07T20:28:47.219Z,19.33
2023-04-07T20:31:16.829Z,20.48
2023-04-07T20:33:46.032Z,19.10
2023-04-07T20:36:15.044Z,19.60
2023-04-07T20:38:44.749Z,19.35
2023-04-07T20:41:16.713Z,19.23
2023-04-07T20:43:45.984Z,17.67
2023-04-07T20:46:15.188Z,19.05
2023-04-07T20:48:44.622Z,17.98
2023-04-07T20:51:14.382Z,18.50
2023-04-07T20:53:44.120Z,18.98
2023-04-07T20:56:14.585Z,19.60
2023-04-07T20:58:43.659Z,19.05
2023-04-07T21:01:12.740Z,19.98
2023-04-07T21:03:44.700Z,19.80
2023-04-07T21:06:16.775Z,19.30
2023-04-07T21:08:46.235Z,19.80
2023-04-07T21:11:17.095Z,20.75
2023-04-07T21:13:46.284Z,20.50
2023-04-07T21:16:15.523Z,19.58
2023-04-07T21:18:44.551Z,21.55
2023-04-07T21:21:13.696Z,22.38
2023-04-07T21:23:42.842Z,21.25
2023-04-07T21:26:12.032Z,20.75
2023-04-07T21:28:42.492Z,21.70
2023-04-07T21:31:11.839Z,21.20
2023-04-07T21:33:40.862Z,21.52
2023-04-07T21:36:09.966Z,20.58
2023-04-07T21:38:41.859Z,19.98
2023-04-07T21:41:11.542Z,20.23
2023-04-07T21:43:41.936Z,19.40
2023-04-07T21:46:11.068Z,19.77
2023-04-07T21:48:40.123Z,20.75
2023-04-07T21:51:09.354Z,21.35
2023-04-07T21:53:41.629Z,20.73
2023-04-07T21:56:10.842Z,21.83
2023-04-07T21:58:41.820Z,21.85
2023-04-07T22:01:12.283Z,20.98
2023-04-07T22:03:41.699Z,22.77
2023-04-07T22:06:10.767Z,23.33
2023-04-07T22:08:42.543Z,23.75
2023-04-07T22:11:15.587Z,22.40
2023-04-07T22:13:44.642Z,23.38
2023-04-07T22:16:16.416Z,21.25
2023-04-07T22:18:45.926Z,21.63
2023-04-07T22:21:15.689Z,19.52
2023-04-07T22:23:45.578Z,20.67
2023-04-07T22:26:14.970Z,20.92
2023-04-07T22:28:43.999Z,21.23
2023-04-07T22:31:14.517Z,21.92
2023-04-07T22:33:43.823Z,21.08
2023-04-07T22:36:12.860Z,23.30
2023-04-07T22:38:41.860Z,20.80
2023-04-07T22:41:10.921Z,21.10
2023-04-07T22:43:39.969Z,20.90
2023-04-07T22:46:08.946Z,21.27
2023-04-07T22:48:39.392Z,21.45
2023-04-07T22:51:08.723Z,20.98
2023-04-07T22:53:37.791Z,21.20
2023-04-07T22:56:07.992Z,21.48
2023-04-07T22:58:37.106Z,21.58
2023-04-07T23:01:06.492Z,23.80
2023-04-07T23:03:35.826Z,23.80
2023-04-07T23:06:06.469Z,25.20
2023-04-07T23:08:35.683Z,23.35
2023-04-07T23:11:04.679Z,24.20
2023-04-07T23:13:33.790Z,24.65
2023-04-07T23:16:03.873Z,24.13
2023-04-07T23:18:33.165Z,24.02
2023-04-07T23:21:02.279Z,22.67
2023-04-07T23:23:32.904Z,21.85
2023-04-07T23:26:01.980Z,22.33
2023-04-07T23:28:30.968Z,22.50
2023-04-07T23:30:59.989Z,23.48
2023-04-07T23:33:29.051Z,22.25
2023-04-07T23:35:58.392Z,22.05
2023-04-07T23:38:27.588Z,22.70
2023-04-07T23:40:58.020Z,21.85
2023-04-07T23:43:27.234Z,21.73
2023-04-07T23:45:56.701Z,22.35
2023-04-07T23:48:26.517Z,22.83
2023-04-07T23:50:56.052Z,20.85
2023-04-07T23:53:25.056Z,21.20
2023-04-07T23:55:54.158Z,21.63
2023-04-07T23:58:24.579Z,22.10
